sensor_id;sensor_type;location;lat;lon;timestamp;P1;durP1;ratioP1;P2;durP2;ratioP2
56581;SDS011;42463;52.214;21.238;2024-01-27T00:01:50;28.70;;;16.90;;
56581;SDS011;42463;52.214;21.238;2024-01-27T00:04:25;27.80;;;16.80;;
56581;SDS011;42463;52.214;21.238;2024-01-27T00:07:09;27.40;;;16.60;;
56581;SDS011;42463;52.214;21.238;2024-01-27T00:09:45;27.30;;;15.10;;
56581;SDS011;42463;52.214;21.238;2024-01-27T00:12:21;21.70;;;13.00;;
56581;SDS011;42463;52.214;21.238;2024-01-27T00:14:55;23.70;;;12.90;;
56581;SDS011;42463;52.214;21.238;2024-01-27T00:17:31;23.20;;;13.20;;
56581;SDS011;42463;52.214;21.238;2024-01-27T00:20:08;21.40;;;12.70;;
56581;SDS011;42463;52.214;21.238;2024-01-27T00:22:44;20.20;;;12.20;;
56581;SDS011;42463;52.214;21.238;2024-01-27T00:27:51;16.30;;;10.20;;
56581;SDS011;42463;52.214;21.238;2024-01-27T00:30:25;13.20;;;9.80;;
56581;SDS011;42463;52.214;21.238;2024-01-27T00:33:00;12.60;;;8.10;;
56581;SDS011;42463;52.214;21.238;2024-01-27T00:35:41;10.20;;;4.90;;
56581;SDS011;42463;52.214;21.238;2024-01-27T00:38:16;9.20;;;4.80;;
56581;SDS011;42463;52.214;21.238;2024-01-27T00:40:51;11.50;;;4.70;;
56581;SDS011;42463;52.214;21.238;2024-01-27T00:43:46;8.60;;;3.80;;
56581;SDS011;42463;52.214;21.238;2024-01-27T00:48:54;5.40;;;2.30;;
56581;SDS011;42463;52.214;21.238;2024-01-27T00:51:28;8.00;;;2.30;;
56581;SDS011;42463;52.214;21.238;2024-01-27T00:54:02;6.60;;;1.90;;
56581;SDS011;42463;52.214;21.238;2024-01-27T00:56:36;4.10;;;1.50;;
56581;SDS011;42463;52.214;21.238;2024-01-27T00:59:10;8.60;;;1.80;;
56581;SDS011;42463;52.214;21.238;2024-01-27T01:01:45;3.90;;;1.60;;
56581;SDS011;42463;52.214;21.238;2024-01-27T01:04:20;5.60;;;2.00;;
56581;SDS011;42463;52.214;21.238;2024-01-27T01:06:55;5.40;;;2.50;;
56581;SDS011;42463;52.214;21.238;2024-01-27T01:09:29;9.30;;;2.40;;
56581;SDS011;42463;52.214;21.238;2024-01-27T01:12:05;7.10;;;2.70;;
56581;SDS011;42463;52.214;21.238;2024-01-27T01:14:40;7.70;;;2.90;;
56581;SDS011;42463;52.214;21.238;2024-01-27T01:17:16;6.90;;;2.00;;
56581;SDS011;42463;52.214;21.238;2024-01-27T01:19:51;10.30;;;2.10;;
56581;SDS011;42463;52.214;21.238;2024-01-27T01:24:57;9.90;;;2.00;;
56581;SDS011;42463;52.214;21.238;2024-01-27T01:27:32;7.10;;;2.00;;
56581;SDS011;42463;52.214;21.238;2024-01-27T01:30:14;6.90;;;2.10;;
56581;SDS011;42463;52.214;21.238;2024-01-27T01:32:49;6.20;;;2.10;;
56581;SDS011;42463;52.214;21.238;2024-01-27T01:35:23;7.00;;;2.20;;
56581;SDS011;42463;52.214;21.238;2024-01-27T01:40:29;5.40;;;2.10;;
56581;SDS011;42463;52.214;21.238;2024-01-27T01:43:04;9.70;;;2.30;;
56581;SDS011;42463;52.214;21.238;2024-01-27T01:45:43;10.70;;;3.10;;
56581;SDS011;42463;52.214;21.238;2024-01-27T01:48:17;8.70;;;1.90;;
56581;SDS011;42463;52.214;21.238;2024-01-27T01:50:52;6.80;;;1.90;;
56581;SDS011;42463;52.214;21.238;2024-01-27T01:53:30;10.60;;;2.00;;
56581;SDS011;42463;52.214;21.238;2024-01-27T01:56:06;10.30;;;2.40;;
56581;SDS011;42463;52.214;21.238;2024-01-27T01:58:41;11.90;;;2.60;;
56581;SDS011;42463;52.214;21.238;2024-01-27T02:01:52;7.80;;;1.90;;
56581;SDS011;42463;52.214;21.238;2024-01-27T02:04:27;10.60;;;1.90;;
56581;SDS011;42463;52.214;21.238;2024-01-27T02:07:11;12.40;;;2.20;;
56581;SDS011;42463;52.214;21.238;2024-01-27T02:09:45;9.40;;;2.00;;
56581;SDS011;42463;52.214;21.238;2024-01-27T02:12:21;8.50;;;1.60;;
56581;SDS011;42463;52.214;21.238;2024-01-27T02:14:55;6.40;;;1.80;;
56581;SDS011;42463;52.214;21.238;2024-01-27T02:20:03;10.70;;;2.10;;
56581;SDS011;42463;52.214;21.238;2024-01-27T02:22:41;11.20;;;2.10;;
56581;SDS011;42463;52.214;21.238;2024-01-27T02:25:19;8.60;;;1.60;;
56581;SDS011;42463;52.214;21.238;2024-01-27T02:27:54;10.00;;;2.00;;
56581;SDS011;42463;52.214;21.238;2024-01-27T02:30:30;8.00;;;1.80;;
56581;SDS011;42463;52.214;21.238;2024-01-27T02:33:06;8.90;;;1.70;;
56581;SDS011;42463;52.214;21.238;2024-01-27T02:35:43;9.70;;;1.70;;
56581;SDS011;42463;52.214;21.238;2024-01-27T02:38:18;13.70;;;2.00;;
56581;SDS011;42463;52.214;21.238;2024-01-27T02:40:53;11.30;;;2.40;;
56581;SDS011;42463;52.214;21.238;2024-01-27T02:43:27;5.60;;;1.70;;
56581;SDS011;42463;52.214;21.238;2024-01-27T02:46:01;9.10;;;1.90;;
56581;SDS011;42463;52.214;21.238;2024-01-27T02:48:36;5.20;;;1.60;;
56581;SDS011;42463;52.214;21.238;2024-01-27T02:51:11;11.10;;;2.40;;
56581;SDS011;42463;52.214;21.238;2024-01-27T02:53:45;11.10;;;2.10;;
56581;SDS011;42463;52.214;21.238;2024-01-27T02:56:19;6.90;;;2.00;;
56581;SDS011;42463;52.214;21.238;2024-01-27T02:58:53;10.50;;;2.40;;
56581;SDS011;42463;52.214;21.238;2024-01-27T03:01:28;9.40;;;2.20;;
56581;SDS011;42463;52.214;21.238;2024-01-27T03:04:03;10.30;;;1.80;;
56581;SDS011;42463;52.214;21.238;2024-01-27T03:09:09;11.10;;;2.30;;
56581;SDS011;42463;52.214;21.238;2024-01-27T03:11:46;10.60;;;2.10;;
56581;SDS011;42463;52.214;21.238;2024-01-27T03:14:20;8.70;;;2.10;;
56581;SDS011;42463;52.214;21.238;2024-01-27T03:16:55;9.70;;;1.90;;
56581;SDS011;42463;52.214;21.238;2024-01-27T03:19:30;7.60;;;1.90;;
56581;SDS011;42463;52.214;21.238;2024-01-27T03:22:04;11.80;;;2.40;;
56581;SDS011;42463;52.214;21.238;2024-01-27T03:24:41;9.30;;;2.30;;
56581;SDS011;42463;52.214;21.238;2024-01-27T03:27:15;10.10;;;1.90;;
56581;SDS011;42463;52.214;21.238;2024-01-27T03:29:49;8.40;;;1.70;;
56581;SDS011;42463;52.214;21.238;2024-01-27T03:34:55;8.90;;;2.10;;
56581;SDS011;42463;52.214;21.238;2024-01-27T03:40:02;9.40;;;2.10;;
56581;SDS011;42463;52.214;21.238;2024-01-27T03:42:38;9.10;;;1.70;;
56581;SDS011;42463;52.214;21.238;2024-01-27T03:45:12;9.40;;;1.80;;
56581;SDS011;42463;52.214;21.238;2024-01-27T03:47:46;10.50;;;2.10;;
56581;SDS011;42463;52.214;21.238;2024-01-27T03:50:21;14.20;;;2.70;;
56581;SDS011;42463;52.214;21.238;2024-01-27T03:52:56;10.50;;;2.30;;
56581;SDS011;42463;52.214;21.238;2024-01-27T03:55:31;12.80;;;2.40;;
56581;SDS011;42463;52.214;21.238;2024-01-27T03:58:05;10.00;;;2.00;;
56581;SDS011;42463;52.214;21.238;2024-01-27T04:00:40;10.30;;;2.70;;
56581;SDS011;42463;52.214;21.238;2024-01-27T04:03:14;12.90;;;2.40;;
56581;SDS011;42463;52.214;21.238;2024-01-27T04:05:49;8.60;;;2.40;;
56581;SDS011;42463;52.214;21.238;2024-01-27T04:08:24;9.00;;;2.50;;
56581;SDS011;42463;52.214;21.238;2024-01-27T04:10:59;9.30;;;2.40;;
56581;SDS011;42463;52.214;21.238;2024-01-27T04:13:35;9.10;;;2.30;;
56581;SDS011;42463;52.214;21.238;2024-01-27T04:16:09;13.00;;;2.50;;
56581;SDS011;42463;52.214;21.238;2024-01-27T04:18:44;10.90;;;2.10;;
56581;SDS011;42463;52.214;21.238;2024-01-27T04:21:20;10.20;;;2.60;;
56581;SDS011;42463;52.214;21.238;2024-01-27T04:23:55;13.30;;;3.10;;
56581;SDS011;42463;52.214;21.238;2024-01-27T04:29:02;11.60;;;2.20;;
56581;SDS011;42463;52.214;21.238;2024-01-27T04:31:40;15.40;;;2.40;;
56581;SDS011;42463;52.214;21.238;2024-01-27T04:34:15;8.90;;;2.70;;
56581;SDS011;42463;52.214;21.238;2024-01-27T04:36:50;9.80;;;2.30;;
56581;SDS011;42463;52.214;21.238;2024-01-27T04:41:57;10.50;;;2.20;;
56581;SDS011;42463;52.214;21.238;2024-01-27T04:44:32;14.40;;;2.60;;
56581;SDS011;42463;52.214;21.238;2024-01-27T04:47:08;10.70;;;2.70;;
56581;SDS011;42463;52.214;21.238;2024-01-27T04:49:45;11.40;;;2.60;;
56581;SDS011;42463;52.214;21.238;2024-01-27T04:52:20;12.80;;;2.70;;
56581;SDS011;42463;52.214;21.238;2024-01-27T04:54:55;10.00;;;2.40;;
56581;SDS011;42463;52.214;21.238;2024-01-27T04:57:30;10.60;;;2.60;;
56581;SDS011;42463;52.214;21.238;2024-01-27T05:00:08;9.80;;;3.00;;
56581;SDS011;42463;52.214;21.238;2024-01-27T05:02:45;13.40;;;2.70;;
56581;SDS011;42463;52.214;21.238;2024-01-27T05:05:21;12.20;;;2.30;;
56581;SDS011;42463;52.214;21.238;2024-01-27T05:07:56;11.30;;;2.40;;
56581;SDS011;42463;52.214;21.238;2024-01-27T05:10:31;9.90;;;3.10;;
56581;SDS011;42463;52.214;21.238;2024-01-27T05:13:05;9.20;;;2.80;;
56581;SDS011;42463;52.214;21.238;2024-01-27T05:15:40;11.60;;;2.90;;
56581;SDS011;42463;52.214;21.238;2024-01-27T05:18:15;9.70;;;3.10;;
56581;SDS011;42463;52.214;21.238;2024-01-27T05:23:21;12.80;;;3.30;;
56581;SDS011;42463;52.214;21.238;2024-01-27T05:25:56;11.70;;;3.10;;
56581;SDS011;42463;52.214;21.238;2024-01-27T05:31:04;12.30;;;3.40;;
56581;SDS011;42463;52.214;21.238;2024-01-27T05:33:44;15.60;;;3.10;;
56581;SDS011;42463;52.214;21.238;2024-01-27T05:36:18;11.80;;;3.00;;
56581;SDS011;42463;52.214;21.238;2024-01-27T05:38:52;9.90;;;2.80;;
56581;SDS011;42463;52.214;21.238;2024-01-27T05:41:29;10.10;;;3.20;;
56581;SDS011;42463;52.214;21.238;2024-01-27T05:44:03;16.00;;;3.30;;
56581;SDS011;42463;52.214;21.238;2024-01-27T05:46:57;12.00;;;2.90;;
56581;SDS011;42463;52.214;21.238;2024-01-27T05:49:32;12.40;;;3.20;;
56581;SDS011;42463;52.214;21.238;2024-01-27T05:52:08;10.90;;;2.80;;
56581;SDS011;42463;52.214;21.238;2024-01-27T05:54:44;13.00;;;3.00;;
56581;SDS011;42463;52.214;21.238;2024-01-27T05:57:21;12.80;;;3.00;;
56581;SDS011;42463;52.214;21.238;2024-01-27T05:59:57;13.60;;;3.00;;
56581;SDS011;42463;52.214;21.238;2024-01-27T06:02:32;14.30;;;3.30;;
56581;SDS011;42463;52.214;21.238;2024-01-27T06:05:08;12.40;;;3.10;;
56581;SDS011;42463;52.214;21.238;2024-01-27T06:07:44;16.00;;;3.40;;
56581;SDS011;42463;52.214;21.238;2024-01-27T06:10:21;12.40;;;2.60;;
56581;SDS011;42463;52.214;21.238;2024-01-27T06:12:55;13.30;;;3.00;;
56581;SDS011;42463;52.214;21.238;2024-01-27T06:15:30;11.00;;;2.70;;
56581;SDS011;42463;52.214;21.238;2024-01-27T06:18:05;13.20;;;3.00;;
56581;SDS011;42463;52.214;21.238;2024-01-27T06:20:41;14.40;;;3.00;;
56581;SDS011;42463;52.214;21.238;2024-01-27T06:23:15;13.60;;;3.10;;
56581;SDS011;42463;52.214;21.238;2024-01-27T06:25:52;8.60;;;2.60;;
56581;SDS011;42463;52.214;21.238;2024-01-27T06:28:27;13.80;;;3.20;;
56581;SDS011;42463;52.214;21.238;2024-01-27T06:31:03;11.70;;;3.10;;
56581;SDS011;42463;52.214;21.238;2024-01-27T06:33:39;13.00;;;2.60;;
56581;SDS011;42463;52.214;21.238;2024-01-27T06:36:14;13.20;;;3.60;;
56581;SDS011;42463;52.214;21.238;2024-01-27T06:41:22;13.60;;;3.30;;
56581;SDS011;42463;52.214;21.238;2024-01-27T06:43:56;14.80;;;3.40;;
56581;SDS011;42463;52.214;21.238;2024-01-27T06:46:32;13.10;;;2.90;;
56581;SDS011;42463;52.214;21.238;2024-01-27T06:49:11;11.60;;;3.10;;
56581;SDS011;42463;52.214;21.238;2024-01-27T06:51:45;12.40;;;3.50;;
56581;SDS011;42463;52.214;21.238;2024-01-27T06:54:20;10.00;;;3.70;;
56581;SDS011;42463;52.214;21.238;2024-01-27T06:56:55;12.50;;;3.20;;
56581;SDS011;42463;52.214;21.238;2024-01-27T06:59:32;8.90;;;3.30;;
56581;SDS011;42463;52.214;21.238;2024-01-27T07:02:07;13.40;;;3.70;;
56581;SDS011;42463;52.214;21.238;2024-01-27T07:04:44;15.80;;;3.70;;
56581;SDS011;42463;52.214;21.238;2024-01-27T07:07:19;12.90;;;3.30;;
56581;SDS011;42463;52.214;21.238;2024-01-27T07:09:57;12.20;;;3.30;;
56581;SDS011;42463;52.214;21.238;2024-01-27T07:12:31;14.50;;;3.40;;
56581;SDS011;42463;52.214;21.238;2024-01-27T07:15:09;14.60;;;3.80;;
56581;SDS011;42463;52.214;21.238;2024-01-27T07:17:45;14.80;;;4.20;;
56581;SDS011;42463;52.214;21.238;2024-01-27T07:20:20;11.70;;;3.40;;
56581;SDS011;42463;52.214;21.238;2024-01-27T07:22:55;14.20;;;3.60;;
56581;SDS011;42463;52.214;21.238;2024-01-27T07:25:30;11.00;;;3.60;;
56581;SDS011;42463;52.214;21.238;2024-01-27T07:28:06;13.10;;;3.90;;
56581;SDS011;42463;52.214;21.238;2024-01-27T07:30:41;10.50;;;3.70;;
56581;SDS011;42463;52.214;21.238;2024-01-27T07:33:15;12.70;;;3.80;;
56581;SDS011;42463;52.214;21.238;2024-01-27T07:35:50;8.50;;;3.40;;
56581;SDS011;42463;52.214;21.238;2024-01-27T07:38:26;12.30;;;4.00;;
56581;SDS011;42463;52.214;21.238;2024-01-27T07:41:03;11.60;;;4.00;;
56581;SDS011;42463;52.214;21.238;2024-01-27T07:43:37;14.10;;;3.80;;
56581;SDS011;42463;52.214;21.238;2024-01-27T07:46:12;13.20;;;4.20;;
56581;SDS011;42463;52.214;21.238;2024-01-27T07:48:47;16.20;;;4.00;;
56581;SDS011;42463;52.214;21.238;2024-01-27T07:51:25;13.30;;;3.50;;
56581;SDS011;42463;52.214;21.238;2024-01-27T07:54:00;12.20;;;3.60;;
56581;SDS011;42463;52.214;21.238;2024-01-27T07:56:35;11.00;;;3.10;;
56581;SDS011;42463;52.214;21.238;2024-01-27T07:59:14;12.70;;;3.40;;
56581;SDS011;42463;52.214;21.238;2024-01-27T08:01:49;11.90;;;3.70;;
56581;SDS011;42463;52.214;21.238;2024-01-27T08:04:24;11.10;;;3.20;;
56581;SDS011;42463;52.214;21.238;2024-01-27T08:06:59;8.30;;;3.30;;
56581;SDS011;42463;52.214;21.238;2024-01-27T08:09:40;6.80;;;2.90;;
56581;SDS011;42463;52.214;21.238;2024-01-27T08:12:15;8.40;;;3.10;;
56581;SDS011;42463;52.214;21.238;2024-01-27T08:14:51;9.00;;;3.20;;
56581;SDS011;42463;52.214;21.238;2024-01-27T08:17:25;7.80;;;3.40;;
56581;SDS011;42463;52.214;21.238;2024-01-27T08:22:32;14.00;;;3.70;;
56581;SDS011;42463;52.214;21.238;2024-01-27T08:25:09;7.40;;;3.50;;
56581;SDS011;42463;52.214;21.238;2024-01-27T08:27:44;10.00;;;3.60;;
56581;SDS011;42463;52.214;21.238;2024-01-27T08:30:40;10.50;;;3.80;;
56581;SDS011;42463;52.214;21.238;2024-01-27T08:33:14;8.40;;;3.70;;
56581;SDS011;42463;52.214;21.238;2024-01-27T08:35:50;10.70;;;3.40;;
56581;SDS011;42463;52.214;21.238;2024-01-27T08:38:26;8.00;;;3.30;;
56581;SDS011;42463;52.214;21.238;2024-01-27T08:41:01;11.80;;;4.10;;
56581;SDS011;42463;52.214;21.238;2024-01-27T08:43:35;8.20;;;3.70;;
56581;SDS011;42463;52.214;21.238;2024-01-27T08:46:10;11.40;;;3.80;;
56581;SDS011;42463;52.214;21.238;2024-01-27T08:48:47;8.40;;;3.80;;
56581;SDS011;42463;52.214;21.238;2024-01-27T08:51:22;8.30;;;3.60;;
56581;SDS011;42463;52.214;21.238;2024-01-27T08:53:59;10.20;;;3.70;;
56581;SDS011;42463;52.214;21.238;2024-01-27T08:56:37;6.30;;;3.30;;
56581;SDS011;42463;52.214;21.238;2024-01-27T08:59:14;9.30;;;3.50;;
56581;SDS011;42463;52.214;21.238;2024-01-27T09:01:50;11.30;;;4.10;;
56581;SDS011;42463;52.214;21.238;2024-01-27T09:04:27;11.30;;;3.90;;
56581;SDS011;42463;52.214;21.238;2024-01-27T09:07:01;10.00;;;4.30;;
56581;SDS011;42463;52.214;21.238;2024-01-27T09:09:38;10.30;;;4.90;;
56581;SDS011;42463;52.214;21.238;2024-01-27T09:12:12;9.10;;;4.10;;
56581;SDS011;42463;52.214;21.238;2024-01-27T09:14:47;9.60;;;4.30;;
56581;SDS011;42463;52.214;21.238;2024-01-27T09:17:22;8.00;;;4.20;;
56581;SDS011;42463;52.214;21.238;2024-01-27T09:19:58;7.90;;;3.60;;
56581;SDS011;42463;52.214;21.238;2024-01-27T09:22:34;11.40;;;4.70;;
56581;SDS011;42463;52.214;21.238;2024-01-27T09:25:16;10.70;;;4.20;;
56581;SDS011;42463;52.214;21.238;2024-01-27T09:27:52;10.00;;;3.70;;
56581;SDS011;42463;52.214;21.238;2024-01-27T09:30:28;8.80;;;4.30;;
56581;SDS011;42463;52.214;21.238;2024-01-27T09:33:15;9.40;;;3.90;;
56581;SDS011;42463;52.214;21.238;2024-01-27T09:35:56;8.00;;;3.70;;
56581;SDS011;42463;52.214;21.238;2024-01-27T09:38:31;7.80;;;4.10;;
56581;SDS011;42463;52.214;21.238;2024-01-27T09:41:08;11.30;;;4.40;;
56581;SDS011;42463;52.214;21.238;2024-01-27T09:43:46;7.50;;;3.50;;
56581;SDS011;42463;52.214;21.238;2024-01-27T09:46:28;9.80;;;4.30;;
56581;SDS011;42463;52.214;21.238;2024-01-27T09:49:05;8.20;;;3.70;;
56581;SDS011;42463;52.214;21.238;2024-01-27T09:51:46;8.10;;;4.10;;
56581;SDS011;42463;52.214;21.238;2024-01-27T09:54:20;8.50;;;4.10;;
56581;SDS011;42463;52.214;21.238;2024-01-27T09:57:27;7.40;;;3.70;;
56581;SDS011;42463;52.214;21.238;2024-01-27T10:00:04;10.20;;;3.90;;
56581;SDS011;42463;52.214;21.238;2024-01-27T10:02:43;8.30;;;3.30;;
56581;SDS011;42463;52.214;21.238;2024-01-27T10:05:20;7.60;;;3.30;;
56581;SDS011;42463;52.214;21.238;2024-01-27T10:07:58;5.30;;;3.70;;
56581;SDS011;42463;52.214;21.238;2024-01-27T10:10:33;6.40;;;3.20;;
56581;SDS011;42463;52.214;21.238;2024-01-27T10:13:11;4.30;;;3.30;;
56581;SDS011;42463;52.214;21.238;2024-01-27T10:15:49;8.70;;;3.80;;
56581;SDS011;42463;52.214;21.238;2024-01-27T10:18:37;7.40;;;3.10;;
56581;SDS011;42463;52.214;21.238;2024-01-27T10:21:17;8.20;;;3.60;;
56581;SDS011;42463;52.214;21.238;2024-01-27T10:23:55;9.20;;;3.60;;
56581;SDS011;42463;52.214;21.238;2024-01-27T10:26:34;6.00;;;3.50;;
56581;SDS011;42463;52.214;21.238;2024-01-27T10:29:09;4.60;;;2.90;;
56581;SDS011;42463;52.214;21.238;2024-01-27T10:31:42;5.20;;;3.10;;
56581;SDS011;42463;52.214;21.238;2024-01-27T10:34:20;7.40;;;3.20;;
56581;SDS011;42463;52.214;21.238;2024-01-27T10:36:55;4.20;;;2.90;;
56581;SDS011;42463;52.214;21.238;2024-01-27T10:39:30;4.60;;;3.10;;
56581;SDS011;42463;52.214;21.238;2024-01-27T10:42:06;6.30;;;3.30;;
56581;SDS011;42463;52.214;21.238;2024-01-27T10:44:44;6.20;;;3.20;;
56581;SDS011;42463;52.214;21.238;2024-01-27T10:47:21;6.10;;;3.00;;
56581;SDS011;42463;52.214;21.238;2024-01-27T10:49:59;6.10;;;2.90;;
56581;SDS011;42463;52.214;21.238;2024-01-27T10:52:38;4.00;;;2.60;;
56581;SDS011;42463;52.214;21.238;2024-01-27T10:55:15;3.40;;;2.60;;
56581;SDS011;42463;52.214;21.238;2024-01-27T10:57:51;6.40;;;3.00;;
56581;SDS011;42463;52.214;21.238;2024-01-27T11:00:28;4.10;;;3.00;;
56581;SDS011;42463;52.214;21.238;2024-01-27T11:03:05;5.70;;;3.00;;
56581;SDS011;42463;52.214;21.238;2024-01-27T11:05:42;6.30;;;3.00;;
56581;SDS011;42463;52.214;21.238;2024-01-27T11:08:18;4.50;;;3.20;;
56581;SDS011;42463;52.214;21.238;2024-01-27T11:10:53;5.30;;;2.90;;
56581;SDS011;42463;52.214;21.238;2024-01-27T11:13:27;4.70;;;2.90;;
56581;SDS011;42463;52.214;21.238;2024-01-27T11:16:02;5.30;;;3.30;;
56581;SDS011;42463;52.214;21.238;2024-01-27T11:18:36;4.30;;;2.80;;
56581;SDS011;42463;52.214;21.238;2024-01-27T11:21:12;4.90;;;3.20;;
56581;SDS011;42463;52.214;21.238;2024-01-27T11:23:46;4.70;;;2.90;;
56581;SDS011;42463;52.214;21.238;2024-01-27T11:26:21;5.50;;;3.40;;
56581;SDS011;42463;52.214;21.238;2024-01-27T11:28:55;3.50;;;2.70;;
56581;SDS011;42463;52.214;21.238;2024-01-27T11:31:49;6.70;;;3.10;;
56581;SDS011;42463;52.214;21.238;2024-01-27T11:34:22;6.20;;;3.40;;
56581;SDS011;42463;52.214;21.238;2024-01-27T11:36:54;6.10;;;3.40;;
56581;SDS011;42463;52.214;21.238;2024-01-27T11:39:33;5.60;;;3.60;;
56581;SDS011;42463;52.214;21.238;2024-01-27T11:44:41;4.20;;;3.80;;
56581;SDS011;42463;52.214;21.238;2024-01-27T11:47:17;7.20;;;3.70;;
56581;SDS011;42463;52.214;21.238;2024-01-27T11:49:56;6.20;;;4.10;;
56581;SDS011;42463;52.214;21.238;2024-01-27T11:52:30;5.60;;;3.70;;
56581;SDS011;42463;52.214;21.238;2024-01-27T11:55:03;6.40;;;4.00;;
56581;SDS011;42463;52.214;21.238;2024-01-27T11:57:37;6.50;;;4.20;;
56581;SDS011;42463;52.214;21.238;2024-01-27T12:00:11;5.60;;;4.00;;
56581;SDS011;42463;52.214;21.238;2024-01-27T12:02:45;6.70;;;4.30;;
56581;SDS011;42463;52.214;21.238;2024-01-27T12:05:22;5.30;;;4.20;;
56581;SDS011;42463;52.214;21.238;2024-01-27T12:07:57;7.10;;;4.40;;
56581;SDS011;42463;52.214;21.238;2024-01-27T12:10:30;5.70;;;4.00;;
56581;SDS011;42463;52.214;21.238;2024-01-27T12:13:03;8.20;;;4.30;;
56581;SDS011;42463;52.214;21.238;2024-01-27T12:15:36;6.00;;;4.40;;
56581;SDS011;42463;52.214;21.238;2024-01-27T12:18:09;4.80;;;3.70;;
56581;SDS011;42463;52.214;21.238;2024-01-27T12:20:43;6.20;;;3.90;;
56581;SDS011;42463;52.214;21.238;2024-01-27T12:25:55;4.60;;;3.60;;
56581;SDS011;42463;52.214;21.238;2024-01-27T12:28:28;6.80;;;4.40;;
56581;SDS011;42463;52.214;21.238;2024-01-27T12:31:03;4.70;;;3.60;;
56581;SDS011;42463;52.214;21.238;2024-01-27T12:33:36;6.40;;;4.30;;
56581;SDS011;42463;52.214;21.238;2024-01-27T12:36:12;6.80;;;4.30;;
56581;SDS011;42463;52.214;21.238;2024-01-27T12:38:53;5.10;;;3.80;;
56581;SDS011;42463;52.214;21.238;2024-01-27T12:41:30;5.10;;;4.10;;
56581;SDS011;42463;52.214;21.238;2024-01-27T12:44:06;5.10;;;3.70;;
56581;SDS011;42463;52.214;21.238;2024-01-27T12:46:42;4.80;;;3.80;;
56581;SDS011;42463;52.214;21.238;2024-01-27T12:49:18;5.30;;;3.80;;
56581;SDS011;42463;52.214;21.238;2024-01-27T12:51:55;4.60;;;3.70;;
56581;SDS011;42463;52.214;21.238;2024-01-27T12:54:29;4.50;;;3.80;;
56581;SDS011;42463;52.214;21.238;2024-01-27T12:57:05;4.60;;;3.80;;
56581;SDS011;42463;52.214;21.238;2024-01-27T12:59:40;4.70;;;3.90;;
56581;SDS011;42463;52.214;21.238;2024-01-27T13:02:16;4.30;;;3.70;;
56581;SDS011;42463;52.214;21.238;2024-01-27T13:04:51;4.00;;;3.60;;
56581;SDS011;42463;52.214;21.238;2024-01-27T13:07:35;4.30;;;3.50;;
56581;SDS011;42463;52.214;21.238;2024-01-27T13:10:11;5.00;;;3.90;;
56581;SDS011;42463;52.214;21.238;2024-01-27T13:12:45;4.70;;;3.70;;
56581;SDS011;42463;52.214;21.238;2024-01-27T13:15:23;7.40;;;3.80;;
56581;SDS011;42463;52.214;21.238;2024-01-27T13:18:02;5.90;;;3.70;;
56581;SDS011;42463;52.214;21.238;2024-01-27T13:20:38;4.40;;;3.80;;
56581;SDS011;42463;52.214;21.238;2024-01-27T13:23:13;4.10;;;3.60;;
56581;SDS011;42463;52.214;21.238;2024-01-27T13:25:48;5.50;;;3.50;;
56581;SDS011;42463;52.214;21.238;2024-01-27T13:28:23;3.50;;;3.20;;
56581;SDS011;42463;52.214;21.238;2024-01-27T13:31:03;4.00;;;3.20;;
56581;SDS011;42463;52.214;21.238;2024-01-27T13:33:38;4.20;;;3.60;;
56581;SDS011;42463;52.214;21.238;2024-01-27T13:36:12;4.50;;;3.50;;
56581;SDS011;42463;52.214;21.238;2024-01-27T13:38:51;3.30;;;2.90;;
56581;SDS011;42463;52.214;21.238;2024-01-27T13:41:25;4.50;;;3.40;;
56581;SDS011;42463;52.214;21.238;2024-01-27T13:44:06;4.10;;;3.20;;
56581;SDS011;42463;52.214;21.238;2024-01-27T13:46:41;5.50;;;3.30;;
56581;SDS011;42463;52.214;21.238;2024-01-27T13:49:20;4.40;;;3.30;;
56581;SDS011;42463;52.214;21.238;2024-01-27T13:54:46;4.10;;;3.30;;
56581;SDS011;42463;52.214;21.238;2024-01-27T13:57:23;4.70;;;3.30;;
56581;SDS011;42463;52.214;21.238;2024-01-27T13:59:58;6.10;;;3.90;;
56581;SDS011;42463;52.214;21.238;2024-01-27T14:02:32;5.70;;;3.80;;
56581;SDS011;42463;52.214;21.238;2024-01-27T14:05:13;4.70;;;3.60;;
56581;SDS011;42463;52.214;21.238;2024-01-27T14:07:58;5.50;;;3.50;;
56581;SDS011;42463;52.214;21.238;2024-01-27T14:10:34;5.40;;;3.50;;
56581;SDS011;42463;52.214;21.238;2024-01-27T14:13:10;4.50;;;3.50;;
56581;SDS011;42463;52.214;21.238;2024-01-27T14:18:18;3.70;;;2.60;;
56581;SDS011;42463;52.214;21.238;2024-01-27T14:20:57;5.00;;;3.50;;
56581;SDS011;42463;52.214;21.238;2024-01-27T14:23:31;3.70;;;3.10;;
56581;SDS011;42463;52.214;21.238;2024-01-27T14:26:12;3.80;;;3.40;;
56581;SDS011;42463;52.214;21.238;2024-01-27T14:28:48;5.70;;;3.50;;
56581;SDS011;42463;52.214;21.238;2024-01-27T14:31:24;4.60;;;3.20;;
56581;SDS011;42463;52.214;21.238;2024-01-27T14:34:07;4.40;;;3.10;;
56581;SDS011;42463;52.214;21.238;2024-01-27T14:36:46;3.20;;;2.90;;
56581;SDS011;42463;52.214;21.238;2024-01-27T14:39:20;5.30;;;3.60;;
56581;SDS011;42463;52.214;21.238;2024-01-27T14:42:18;3.70;;;3.10;;
56581;SDS011;42463;52.214;21.238;2024-01-27T14:44:53;4.10;;;3.10;;
56581;SDS011;42463;52.214;21.238;2024-01-27T14:47:31;4.20;;;2.70;;
56581;SDS011;42463;52.214;21.238;2024-01-27T14:50:06;4.10;;;3.20;;
56581;SDS011;42463;52.214;21.238;2024-01-27T14:52:45;3.20;;;2.70;;
56581;SDS011;42463;52.214;21.238;2024-01-27T14:55:20;3.30;;;2.50;;
56581;SDS011;42463;52.214;21.238;2024-01-27T14:57:57;3.10;;;2.70;;
56581;SDS011;42463;52.214;21.238;2024-01-27T15:00:32;3.90;;;3.10;;
56581;SDS011;42463;52.214;21.238;2024-01-27T15:03:09;3.70;;;3.00;;
56581;SDS011;42463;52.214;21.238;2024-01-27T15:05:46;5.60;;;3.50;;
56581;SDS011;42463;52.214;21.238;2024-01-27T15:08:24;3.90;;;3.00;;
56581;SDS011;42463;52.214;21.238;2024-01-27T15:10:57;3.20;;;2.80;;
56581;SDS011;42463;52.214;21.238;2024-01-27T15:13:31;3.30;;;3.00;;
56581;SDS011;42463;52.214;21.238;2024-01-27T15:16:06;9.00;;;3.80;;
56581;SDS011;42463;52.214;21.238;2024-01-27T15:18:40;6.60;;;3.80;;
56581;SDS011;42463;52.214;21.238;2024-01-27T15:21:19;5.20;;;3.20;;
56581;SDS011;42463;52.214;21.238;2024-01-27T15:24:01;4.30;;;2.80;;
56581;SDS011;42463;52.214;21.238;2024-01-27T15:26:37;4.10;;;2.80;;
56581;SDS011;42463;52.214;21.238;2024-01-27T15:29:12;4.20;;;3.30;;
56581;SDS011;42463;52.214;21.238;2024-01-27T15:31:49;4.40;;;2.70;;
56581;SDS011;42463;52.214;21.238;2024-01-27T15:34:23;5.20;;;3.40;;
56581;SDS011;42463;52.214;21.238;2024-01-27T15:36:59;4.70;;;2.50;;
56581;SDS011;42463;52.214;21.238;2024-01-27T15:39:35;2.90;;;2.40;;
56581;SDS011;42463;52.214;21.238;2024-01-27T15:42:11;3.40;;;2.40;;
56581;SDS011;42463;52.214;21.238;2024-01-27T15:44:45;3.70;;;2.30;;
56581;SDS011;42463;52.214;21.238;2024-01-27T15:47:20;3.60;;;2.30;;
56581;SDS011;42463;52.214;21.238;2024-01-27T15:49:54;3.70;;;2.50;;
56581;SDS011;42463;52.214;21.238;2024-01-27T15:52:54;3.80;;;2.60;;
56581;SDS011;42463;52.214;21.238;2024-01-27T15:55:29;3.90;;;2.50;;
56581;SDS011;42463;52.214;21.238;2024-01-27T15:58:04;3.20;;;2.30;;
56581;SDS011;42463;52.214;21.238;2024-01-27T16:00:37;3.50;;;2.80;;
56581;SDS011;42463;52.214;21.238;2024-01-27T16:05:44;3.60;;;2.30;;
56581;SDS011;42463;52.214;21.238;2024-01-27T16:08:16;5.00;;;2.90;;
56581;SDS011;42463;52.214;21.238;2024-01-27T16:10:49;3.90;;;2.80;;